createdAt,value
2022-08-02T00:01:00.839Z,23.50
2022-08-02T00:03:30.142Z,23.50
2022-08-02T00:05:58.162Z,23.40
2022-08-02T00:08:25.306Z,23.40
2022-08-02T00:10:59.108Z,23.30
2022-08-02T00:13:26.325Z,23.30
2022-08-02T00:15:53.509Z,23.30
2022-08-02T00:18:20.970Z,23.30
2022-08-02T00:20:50.800Z,23.30
2022-08-02T00:23:20.548Z,23.20
2022-08-02T00:25:54.887Z,23.20
2022-08-02T00:28:28.450Z,23.20
2022-08-02T00:30:57.216Z,23.20
2022-08-02T00:34:27.175Z,23.20
2022-08-02T00:36:12.380Z,23.20
2022-08-02T00:38:39.694Z,23.10
2022-08-02T00:41:13.173Z,23.10
2022-08-02T00:43:40.724Z,23.10
2022-08-02T00:46:07.973Z,23.10
2022-08-02T00:48:35.364Z,23.00
2022-08-02T00:51:11.914Z,23.00
2022-08-02T00:53:39.916Z,23.00
2022-08-02T00:56:07.373Z,23.00
2022-08-02T00:58:43.801Z,22.90
2022-08-02T01:01:11.090Z,22.90
2022-08-02T01:03:38.359Z,22.90
2022-08-02T01:06:13.387Z,22.90
2022-08-02T01:08:43.828Z,22.80
2022-08-02T01:11:12.015Z,22.80
2022-08-02T01:13:41.840Z,22.70
2022-08-02T01:16:16.093Z,22.70
2022-08-02T01:18:48.153Z,22.70
2022-08-02T01:21:30.496Z,22.70
2022-08-02T01:24:13.968Z,22.70
2022-08-02T01:26:41.098Z,22.70
2022-08-02T01:29:20.372Z,22.70
2022-08-02T01:31:52.749Z,22.70
2022-08-02T01:34:37.479Z,22.60
2022-08-02T01:37:29.708Z,22.70
2022-08-02T01:40:04.552Z,22.60
2022-08-02T01:42:32.753Z,22.60
2022-08-02T01:45:03.438Z,22.60
2022-08-02T01:47:38.576Z,22.60
2022-08-02T01:50:07.365Z,22.60
2022-08-02T01:52:39.642Z,22.60
2022-08-02T01:55:23.961Z,22.60
2022-08-02T01:58:05.206Z,22.50
2022-08-02T02:00:39.756Z,22.50
2022-08-02T02:03:12.488Z,22.50
2022-08-02T02:05:41.480Z,22.50
2022-08-02T02:08:09.640Z,22.50
2022-08-02T02:10:40.030Z,22.50
2022-08-02T02:13:15.961Z,22.50
2022-08-02T02:15:50.466Z,22.50
2022-08-02T02:18:24.298Z,22.50
2022-08-02T02:20:52.557Z,22.40
2022-08-02T02:23:24.439Z,22.40
2022-08-02T02:25:55.687Z,22.40
2022-08-02T02:28:30.448Z,22.40
2022-08-02T02:31:10.432Z,22.40
2022-08-02T02:33:46.437Z,22.30
2022-08-02T02:36:18.876Z,22.40
2022-08-02T02:38:50.676Z,22.30
2022-08-02T02:41:19.974Z,22.20
2022-08-02T02:43:50.447Z,22.20
2022-08-02T02:46:22.418Z,22.20
2022-08-02T02:48:55.629Z,22.20
2022-08-02T02:51:24.097Z,22.20
2022-08-02T02:54:33.787Z,22.10
2022-08-02T02:56:42.122Z,22.10
2022-08-02T02:59:12.809Z,22.10
2022-08-02T03:01:56.737Z,22.00
2022-08-02T03:04:27.943Z,22.00
2022-08-02T03:07:15.327Z,22.00
2022-08-02T03:09:42.609Z,22.00
2022-08-02T03:12:10.837Z,22.00
2022-08-02T03:14:43.172Z,22.00
2022-08-02T03:17:13.021Z,21.90
2022-08-02T03:19:40.263Z,21.90
2022-08-02T03:22:11.515Z,21.90
2022-08-02T03:24:41.833Z,21.90
2022-08-02T03:27:09.046Z,21.80
2022-08-02T03:29:36.331Z,21.80
2022-08-02T03:32:04.160Z,21.80
2022-08-02T03:34:31.752Z,21.80
2022-08-02T03:37:00.195Z,21.70
2022-08-02T03:39:27.862Z,21.70
2022-08-02T03:41:55.937Z,21.70
2022-08-02T03:44:24.044Z,21.70
2022-08-02T03:46:55.124Z,21.60
2022-08-02T03:49:25.048Z,21.60
2022-08-02T03:51:52.917Z,21.60
2022-08-02T03:54:33.104Z,21.60
2022-08-02T03:57:05.042Z,21.50
2022-08-02T03:59:49.658Z,21.50
2022-08-02T04:02:16.896Z,21.50
2022-08-02T04:04:44.131Z,21.40
2022-08-02T04:07:11.347Z,21.40
2022-08-02T04:09:40.918Z,21.40
2022-08-02T04:12:08.448Z,21.30
2022-08-02T04:14:36.436Z,21.30
2022-08-02T04:17:10.538Z,21.30
2022-08-02T04:20:00.893Z,21.30
2022-08-02T04:22:43.243Z,21.30
2022-08-02T04:25:17.493Z,21.30
2022-08-02T04:28:15.149Z,21.30
2022-08-02T04:30:36.283Z,21.30
2022-08-02T04:33:11.190Z,21.30
2022-08-02T04:35:38.545Z,21.30
2022-08-02T04:38:09.391Z,21.40
2022-08-02T04:40:38.399Z,21.40
2022-08-02T04:43:05.912Z,21.40
2022-08-02T04:45:33.755Z,21.50
2022-08-02T04:48:05.327Z,21.50
2022-08-02T04:50:35.704Z,21.50
2022-08-02T04:53:07.411Z,21.60
2022-08-02T04:55:36.738Z,21.60
2022-08-02T04:58:13.581Z,21.70
2022-08-02T05:00:51.238Z,21.70
2022-08-02T05:03:20.873Z,21.70
2022-08-02T05:05:50.167Z,21.80
2022-08-02T05:08:19.963Z,21.90
2022-08-02T05:10:49.647Z,21.90
2022-08-02T05:13:16.886Z,22.00
2022-08-02T05:15:44.375Z,22.00
2022-08-02T05:18:12.367Z,22.10
2022-08-02T05:20:40.435Z,22.10
2022-08-02T05:23:07.686Z,22.20
2022-08-02T05:25:34.913Z,22.20
2022-08-02T05:28:08.354Z,22.20
2022-08-02T05:30:38.816Z,22.20
2022-08-02T05:33:08.176Z,22.30
2022-08-02T05:35:35.480Z,22.30
2022-08-02T05:38:05.050Z,22.30
2022-08-02T05:40:37.812Z,22.30
2022-08-02T05:43:24.274Z,22.30
2022-08-02T05:45:53.679Z,22.30
2022-08-02T05:48:21.156Z,22.30
2022-08-02T05:50:54.160Z,22.30
2022-08-02T05:54:07.791Z,22.30
2022-08-02T05:56:45.801Z,22.40
2022-08-02T05:59:21.016Z,22.40
2022-08-02T06:01:54.129Z,22.40
2022-08-02T06:04:26.217Z,22.40
2022-08-02T06:07:02.698Z,22.40
2022-08-02T06:09:34.823Z,22.40
2022-08-02T06:12:04.770Z,22.40
2022-08-02T06:14:34.671Z,22.40
2022-08-02T06:17:05.694Z,22.40
2022-08-02T06:19:51.069Z,22.40
2022-08-02T06:22:35.022Z,22.50
2022-08-02T06:25:11.723Z,22.50
2022-08-02T06:27:57.103Z,22.50
2022-08-02T06:30:24.499Z,22.50
2022-08-02T06:32:52.774Z,22.50
2022-08-02T06:35:20.371Z,22.50
2022-08-02T06:37:59.248Z,22.60
2022-08-02T06:40:51.281Z,22.60
2022-08-02T06:43:41.626Z,22.70
2022-08-02T06:47:09.121Z,22.70
2022-08-02T06:48:57.349Z,22.70
2022-08-02T06:51:24.679Z,22.80
2022-08-02T06:53:54.459Z,22.90
2022-08-02T06:56:21.911Z,22.90
2022-08-02T06:58:54.006Z,23.00
2022-08-02T07:01:23.801Z,23.00
2022-08-02T07:03:54.216Z,23.10
2022-08-02T07:06:26.053Z,23.20
2022-08-02T07:09:18.357Z,23.20
2022-08-02T07:11:40.521Z,23.30
2022-08-02T07:14:12.666Z,23.30
2022-08-02T07:16:42.853Z,23.40
2022-08-02T07:19:10.496Z,23.40
2022-08-02T07:21:59.234Z,23.50
2022-08-02T07:24:27.551Z,23.50
2022-08-02T07:27:10.694Z,23.50
2022-08-02T07:29:45.177Z,23.50
2022-08-02T07:32:23.392Z,23.50
2022-08-02T07:34:55.174Z,23.60
2022-08-02T07:37:54.267Z,23.60
2022-08-02T07:40:20.414Z,23.60
2022-08-02T07:42:54.591Z,23.70
2022-08-02T07:45:24.622Z,23.70
2022-08-02T07:47:53.090Z,23.80
2022-08-02T07:50:21.735Z,23.90
2022-08-02T07:52:57.186Z,23.90
2022-08-02T07:55:35.222Z,23.90
2022-08-02T07:58:11.477Z,24.00
2022-08-02T08:00:43.891Z,24.00
2022-08-02T08:03:11.383Z,24.10
2022-08-02T08:05:38.799Z,24.10
2022-08-02T08:08:06.153Z,24.10
2022-08-02T08:10:33.571Z,24.20
2022-08-02T08:13:00.863Z,24.10
2022-08-02T08:15:28.047Z,24.10
2022-08-02T08:17:55.250Z,24.20
2022-08-02T08:20:24.881Z,24.10
2022-08-02T08:22:53.128Z,24.20
2022-08-02T08:25:20.473Z,24.10
2022-08-02T08:27:53.068Z,24.20
2022-08-02T08:30:23.477Z,24.20
2022-08-02T08:32:50.756Z,24.20
2022-08-02T08:35:18.043Z,24.30
2022-08-02T08:37:45.258Z,24.30
2022-08-02T08:40:19.638Z,24.30
2022-08-02T08:42:51.928Z,24.30
2022-08-02T08:45:19.596Z,24.40
2022-08-02T08:47:56.380Z,24.40
2022-08-02T08:50:26.048Z,24.40
2022-08-02T08:53:05.613Z,24.50
2022-08-02T08:55:37.666Z,24.50
2022-08-02T08:58:06.073Z,24.50
2022-08-02T09:00:35.707Z,24.60
2022-08-02T09:03:07.540Z,24.70
2022-08-02T09:05:36.121Z,24.70
2022-08-02T09:08:06.665Z,24.80
2022-08-02T09:10:47.718Z,24.90
2022-08-02T09:13:39.158Z,24.90
2022-08-02T09:16:14.534Z,25.00
2022-08-02T09:18:47.635Z,25.00
2022-08-02T09:21:17.036Z,25.10
2022-08-02T09:23:52.408Z,25.20
2022-08-02T09:26:22.812Z,25.30
2022-08-02T09:28:53.143Z,25.40
2022-08-02T09:31:22.518Z,25.40
2022-08-02T09:33:58.408Z,25.50
2022-08-02T09:36:47.618Z,25.60
2022-08-02T09:39:16.606Z,25.70
2022-08-02T09:41:48.293Z,25.70
2022-08-02T09:44:21.356Z,25.70
2022-08-02T09:46:48.634Z,25.80
2022-08-02T09:49:20.199Z,25.90
2022-08-02T09:51:47.705Z,25.80
2022-08-02T09:54:27.691Z,25.90
2022-08-02T09:57:01.947Z,26.00
2022-08-02T09:59:31.752Z,26.00
2022-08-02T10:02:02.501Z,26.10
2022-08-02T10:04:52.720Z,26.10
2022-08-02T10:07:22.995Z,26.10
2022-08-02T10:09:52.280Z,26.10
2022-08-02T10:12:21.023Z,26.20
2022-08-02T10:14:51.948Z,26.20
2022-08-02T10:17:25.284Z,26.20
2022-08-02T10:20:02.373Z,26.30
2022-08-02T10:22:32.314Z,26.40
2022-08-02T10:25:04.101Z,26.40
2022-08-02T10:27:49.268Z,26.40
2022-08-02T10:30:20.924Z,26.50
2022-08-02T10:32:49.783Z,26.50
2022-08-02T10:35:25.994Z,26.60
2022-08-02T10:38:03.486Z,26.70
2022-08-02T10:40:50.232Z,26.70
2022-08-02T10:43:32.744Z,26.80
2022-08-02T10:46:27.515Z,26.90
2022-08-02T10:49:38.605Z,27.00
2022-08-02T10:52:07.779Z,27.10
2022-08-02T10:54:36.910Z,27.10
2022-08-02T10:57:15.443Z,27.20
2022-08-02T10:59:43.398Z,27.20
2022-08-02T11:02:11.427Z,27.30
2022-08-02T11:04:41.633Z,27.30
2022-08-02T11:07:22.019Z,27.30
2022-08-02T11:09:53.842Z,27.40
2022-08-02T11:12:21.630Z,27.40
2022-08-02T11:15:07.693Z,27.50
2022-08-02T11:17:58.952Z,27.60
2022-08-02T11:20:29.233Z,27.70
2022-08-02T11:23:44.399Z,27.70
2022-08-02T11:26:31.195Z,27.80
2022-08-02T11:29:05.416Z,27.90
2022-08-02T11:31:42.503Z,27.90
2022-08-02T11:34:37.859Z,27.90
2022-08-02T11:36:59.842Z,28.00
2022-08-02T11:39:27.145Z,28.00
2022-08-02T11:42:01.072Z,28.10
2022-08-02T11:44:44.723Z,28.10
2022-08-02T11:47:12.639Z,28.20
2022-08-02T11:49:40.133Z,28.20
2022-08-02T11:52:11.257Z,28.20
2022-08-02T11:54:43.292Z,28.30
2022-08-02T11:57:23.858Z,28.30
2022-08-02T11:59:55.066Z,28.30
2022-08-02T12:02:29.497Z,28.30
2022-08-02T12:05:02.997Z,28.40
2022-08-02T12:07:35.283Z,28.40
2022-08-02T12:10:10.113Z,28.40
2022-08-02T12:12:59.408Z,28.40
2022-08-02T12:15:47.192Z,28.40
2022-08-02T12:18:38.421Z,28.40
2022-08-02T12:21:25.507Z,28.30
2022-08-02T12:23:59.796Z,28.40
2022-08-02T12:26:30.540Z,28.40
2022-08-02T12:28:59.001Z,28.40
2022-08-02T12:31:57.512Z,28.40
2022-08-02T12:34:31.321Z,28.50
2022-08-02T12:37:05.908Z,28.50
2022-08-02T12:39:42.542Z,28.60
2022-08-02T12:42:12.011Z,28.60
2022-08-02T12:44:57.803Z,28.60
2022-08-02T12:47:25.665Z,28.70
2022-08-02T12:50:12.113Z,28.70
2022-08-02T12:52:39.513Z,28.80
2022-08-02T12:55:25.893Z,28.80
2022-08-02T12:58:13.149Z,28.80
2022-08-02T13:00:40.632Z,28.80
2022-08-02T13:04:07.420Z,28.90
2022-08-02T13:06:12.007Z,28.90
2022-08-02T13:08:47.698Z,28.90
2022-08-02T13:11:17.338Z,28.90
2022-08-02T13:13:49.170Z,28.90
2022-08-02T13:16:16.561Z,29.00
2022-08-02T13:18:45.686Z,29.00
2022-08-02T13:21:40.150Z,29.10
2022-08-02T13:24:02.758Z,29.10
2022-08-02T13:26:33.770Z,29.10
2022-08-02T13:29:03.747Z,29.20
2022-08-02T13:31:36.512Z,29.20
2022-08-02T13:34:11.880Z,29.20
2022-08-02T13:36:43.769Z,29.30
2022-08-02T13:39:11.998Z,29.30
2022-08-02T13:41:41.722Z,29.40
2022-08-02T13:44:11.274Z,29.40
2022-08-02T13:46:45.556Z,29.50
2022-08-02T13:49:19.434Z,29.50
2022-08-02T13:51:50.340Z,29.50
2022-08-02T13:54:17.757Z,29.70
2022-08-02T13:56:45.023Z,29.70
2022-08-02T13:59:54.329Z,29.70
2022-08-02T14:02:00.068Z,29.70
2022-08-02T14:04:30.781Z,29.80
2022-08-02T14:07:00.506Z,29.70
2022-08-02T14:09:27.722Z,29.80
2022-08-02T14:11:57.393Z,29.80
2022-08-02T14:14:24.725Z,29.80
2022-08-02T14:16:53.336Z,29.90
2022-08-02T14:19:21.925Z,29.90
2022-08-02T14:21:49.922Z,30.00
2022-08-02T14:24:21.200Z,30.10
2022-08-02T14:26:49.125Z,30.10
2022-08-02T14:29:17.103Z,30.20
2022-08-02T14:31:45.213Z,30.20
2022-08-02T14:34:15.591Z,30.20
2022-08-02T14:36:42.922Z,30.30
2022-08-02T14:39:10.539Z,30.30
2022-08-02T14:41:58.558Z,30.30
2022-08-02T14:44:25.142Z,30.30
2022-08-02T14:46:53.025Z,30.40
2022-08-02T14:49:24.642Z,30.50
2022-08-02T14:51:57.540Z,30.60
2022-08-02T14:54:31.417Z,30.60
2022-08-02T14:57:05.548Z,30.70
2022-08-02T14:59:32.885Z,30.70
2022-08-02T15:02:02.669Z,30.70
2022-08-02T15:04:37.333Z,30.80
2022-08-02T15:07:11.354Z,30.80
2022-08-02T15:09:41.238Z,30.90
2022-08-02T15:12:09.820Z,30.90
2022-08-02T15:14:38.146Z,30.90
2022-08-02T15:17:05.884Z,31.00
2022-08-02T15:19:56.142Z,31.10
2022-08-02T15:22:20.905Z,31.10
2022-08-02T15:24:50.695Z,31.20
2022-08-02T15:27:18.287Z,31.20
2022-08-02T15:29:46.467Z,31.30
2022-08-02T15:32:17.206Z,31.30
2022-08-02T15:34:45.014Z,31.30
2022-08-02T15:37:12.431Z,31.40
2022-08-02T15:39:42.219Z,31.40
2022-08-02T15:42:11.960Z,31.40
2022-08-02T15:44:39.841Z,31.50
2022-08-02T15:47:12.056Z,31.50
2022-08-02T15:49:41.614Z,31.60
2022-08-02T15:52:09.610Z,31.60
2022-08-02T15:54:39.305Z,31.70
2022-08-02T15:57:06.761Z,31.70
2022-08-02T15:59:34.778Z,31.70
2022-08-02T16:02:02.213Z,31.80
2022-08-02T16:04:32.786Z,31.80
2022-08-02T16:07:01.564Z,31.90
2022-08-02T16:09:29.075Z,31.90
2022-08-02T16:11:56.393Z,32.00
2022-08-02T16:14:23.558Z,32.00
2022-08-02T16:16:50.787Z,32.00
2022-08-02T16:19:37.485Z,32.00
2022-08-02T16:22:12.569Z,31.90
2022-08-02T16:24:42.279Z,32.00
2022-08-02T16:27:09.530Z,32.00
2022-08-02T16:29:38.972Z,32.00
2022-08-02T16:32:06.824Z,32.10
2022-08-02T16:35:03.997Z,32.10
2022-08-02T16:37:27.376Z,32.10
2022-08-02T16:40:14.674Z,32.00
2022-08-02T16:42:41.850Z,32.10
2022-08-02T16:45:21.530Z,32.10
2022-08-02T16:47:57.512Z,32.20
2022-08-02T16:50:28.595Z,32.20
2022-08-02T16:53:07.067Z,32.20
2022-08-02T16:55:37.178Z,32.20
2022-08-02T16:58:09.684Z,32.20
2022-08-02T17:00:38.043Z,32.20
2022-08-02T17:03:13.837Z,32.20
2022-08-02T17:05:56.074Z,32.30
2022-08-02T17:08:24.667Z,32.30
2022-08-02T17:11:03.808Z,32.40
2022-08-02T17:16:25.964Z,32.50
2022-08-02T17:18:54.544Z,32.60
2022-08-02T17:21:21.860Z,32.70
2022-08-02T17:24:07.439Z,32.70
2022-08-02T17:26:37.616Z,32.70
2022-08-02T17:29:16.077Z,32.70
2022-08-02T17:32:12.410Z,32.80
2022-08-02T17:34:36.892Z,32.80
2022-08-02T17:37:06.815Z,32.90
2022-08-02T17:39:44.447Z,33.00
2022-08-02T17:42:24.701Z,32.90
2022-08-02T17:45:00.948Z,32.90
2022-08-02T17:47:42.425Z,32.80
2022-08-02T17:50:12.765Z,32.80
2022-08-02T17:52:50.016Z,32.70
2022-08-02T17:55:19.710Z,32.70
2022-08-02T17:57:57.640Z,32.60
2022-08-02T18:00:37.845Z,32.60
2022-08-02T18:03:10.322Z,32.60
2022-08-02T18:05:53.388Z,32.50
2022-08-02T18:08:24.114Z,32.50
2022-08-02T18:10:55.704Z,32.50
2022-08-02T18:13:23.898Z,32.60
2022-08-02T18:15:57.161Z,32.60
2022-08-02T18:18:29.579Z,32.60
2022-08-02T18:21:16.084Z,32.70
2022-08-02T18:23:49.682Z,32.70
2022-08-02T18:26:29.214Z,32.70
2022-08-02T18:28:58.075Z,32.80
2022-08-02T18:31:27.037Z,32.80
2022-08-02T18:34:01.594Z,32.80
2022-08-02T18:36:30.567Z,32.80
2022-08-02T18:39:00.264Z,32.70
2022-08-02T18:41:38.238Z,32.70
2022-08-02T18:44:05.869Z,32.70
2022-08-02T18:46:35.417Z,32.60
2022-08-02T18:49:13.534Z,32.50
2022-08-02T18:51:43.826Z,32.40
2022-08-02T18:54:16.238Z,32.40
2022-08-02T18:56:56.616Z,32.30
2022-08-02T18:59:24.589Z,32.30
2022-08-02T19:01:54.293Z,32.20
2022-08-02T19:04:27.616Z,32.10
2022-08-02T19:07:07.548Z,32.00
2022-08-02T19:09:40.238Z,32.00
2022-08-02T19:12:28.287Z,31.90
2022-08-02T19:14:56.187Z,31.80
2022-08-02T19:17:54.432Z,31.70
2022-08-02T19:20:11.375Z,31.70
2022-08-02T19:22:46.866Z,31.60
2022-08-02T19:25:21.794Z,31.50
2022-08-02T19:27:57.653Z,31.40
2022-08-02T19:30:28.812Z,31.30
2022-08-02T19:32:58.875Z,31.30
2022-08-02T19:35:29.789Z,31.20
2022-08-02T19:38:07.262Z,31.10
2022-08-02T19:40:34.761Z,31.00
2022-08-02T19:44:26.589Z,31.00
2022-08-02T19:45:56.794Z,30.90
2022-08-02T19:48:25.488Z,30.80
2022-08-02T19:51:00.911Z,30.70
2022-08-02T19:53:47.460Z,30.70
2022-08-02T19:56:25.249Z,30.60
2022-08-02T19:58:57.838Z,30.50
2022-08-02T20:01:37.416Z,30.50
2022-08-02T20:04:13.796Z,30.40
2022-08-02T20:06:47.812Z,30.30
2022-08-02T20:09:16.624Z,30.30
2022-08-02T20:11:45.542Z,30.20
2022-08-02T20:14:13.438Z,30.10
2022-08-02T20:16:43.213Z,30.10
2022-08-02T20:19:13.920Z,30.00
2022-08-02T20:21:42.833Z,29.90
2022-08-02T20:24:13.726Z,29.80
2022-08-02T20:26:47.031Z,29.80
2022-08-02T20:29:15.478Z,29.80
2022-08-02T20:32:06.330Z,29.70
2022-08-02T20:34:36.199Z,29.70
2022-08-02T20:38:00.971Z,29.60
2022-08-02T20:39:54.840Z,29.50
2022-08-02T20:42:24.562Z,29.40
2022-08-02T20:44:54.979Z,29.40
2022-08-02T20:47:27.926Z,29.30
2022-08-02T20:50:28.109Z,29.30
2022-08-02T20:53:03.284Z,29.20
2022-08-02T20:55:32.137Z,29.10
2022-08-02T20:58:02.028Z,29.00
2022-08-02T21:00:31.775Z,29.00
2022-08-02T21:03:02.997Z,28.90
2022-08-02T21:05:54.279Z,28.90
2022-08-02T21:08:21.307Z,28.80
2022-08-02T21:10:50.583Z,28.80
2022-08-02T21:13:24.384Z,28.80
2022-08-02T21:16:00.452Z,28.70
2022-08-02T21:18:40.129Z,28.70
2022-08-02T21:21:10.283Z,28.70
2022-08-02T21:23:38.567Z,28.60
2022-08-02T21:29:05.714Z,28.50
2022-08-02T21:31:35.610Z,28.50
2022-08-02T21:34:22.146Z,28.40
2022-08-02T21:36:55.536Z,28.40
2022-08-02T21:39:22.798Z,28.30
2022-08-02T21:41:50.499Z,28.30
2022-08-02T21:44:23.842Z,28.30
2022-08-02T21:46:56.935Z,28.20
2022-08-02T21:50:08.995Z,28.20
2022-08-02T21:55:04.960Z,28.10
2022-08-02T21:57:35.814Z,28.10
2022-08-02T22:00:11.545Z,28.10
2022-08-02T22:02:41.307Z,28.00
2022-08-02T22:05:14.404Z,28.00
2022-08-02T22:07:41.752Z,28.00
2022-08-02T22:10:13.133Z,27.90
2022-08-02T22:12:40.395Z,27.90
2022-08-02T22:15:10.574Z,27.80
2022-08-02T22:17:52.575Z,27.80
2022-08-02T22:20:29.236Z,27.80
2022-08-02T22:22:56.571Z,27.70
2022-08-02T22:25:36.197Z,27.70
2022-08-02T22:28:37.913Z,27.60
2022-08-02T22:31:07.029Z,27.60
2022-08-02T22:34:00.161Z,27.50
2022-08-02T22:36:36.097Z,27.40
2022-08-02T22:39:18.711Z,27.40
2022-08-02T22:42:05.534Z,27.30
2022-08-02T22:44:34.761Z,27.20
2022-08-02T22:47:03.960Z,27.20
2022-08-02T22:49:51.462Z,27.10
2022-08-02T22:52:22.050Z,27.10
2022-08-02T22:54:52.212Z,27.00
2022-08-02T22:57:30.352Z,27.00
2022-08-02T22:58:49.252Z,32.40
2022-08-02T22:59:02.660Z,28.60
2022-08-02T22:59:03.620Z,28.20
2022-08-02T23:00:00.198Z,26.90
2022-08-02T23:02:27.670Z,26.90
2022-08-02T23:04:54.997Z,26.80
2022-08-02T23:07:24.531Z,26.80
2022-08-02T23:09:54.053Z,26.70
2022-08-02T23:12:21.445Z,26.70
2022-08-02T23:14:51.518Z,26.70
2022-08-02T23:17:38.424Z,26.60
2022-08-02T23:20:07.056Z,26.60
2022-08-02T23:22:34.610Z,26.60
2022-08-02T23:25:02.789Z,26.50
2022-08-02T23:27:31.580Z,26.50
2022-08-02T23:30:00.028Z,26.40
2022-08-02T23:32:27.621Z,26.40
2022-08-02T23:34:56.203Z,26.40
2022-08-02T23:37:24.569Z,26.30
2022-08-02T23:39:55.285Z,26.30
2022-08-02T23:42:25.167Z,26.20
2022-08-02T23:44:53.189Z,26.10
2022-08-02T23:47:20.762Z,26.10
2022-08-02T23:49:50.006Z,26.10
2022-08-02T23:52:20.080Z,26.10
2022-08-02T23:54:47.309Z,26.00
2022-08-02T23:57:20.157Z,26.00
2022-08-02T23:59:50.995Z,25.90
